Carnival Valor — H3VR — position and weather

sailwx.info

Track history (hours):
 
Tides and Currents Weather Stations Pressure Air Temp Water Temp Dewpoint Dewpoint Depression Visibility Wind Speed Wind Dir Waves Ship Positions

Carnival Valor

Last reported at 2019-Sep-21 11:30 UTC. Time now 2019-Sep-21 11:39 UTC.
Position N 20°29' W 086°59'.

Type: Ship. MMSI: 354298000.

Date/timePositionNaut miles runAvg speedWind from/ knotsBaromVisibWave heightAir tempDewpointWater temp
2019-Sep-21 11:30N 20°29' W 086°59'3 6.9
2019-Sep-21 11:00N 20°32' W 086°60'4 7.1
2019-Sep-21 10:30N 20°35' W 086°58'611.6
2019-Sep-21 10:00N 20°40' W 086°55'32216.9
2019-Sep-20 15:00N 25°54' W 088°12'23915.6 080 / 301016.310.8 27.0 30.0
2019-Sep-19 23:38N 29°36' W 089°51'212.6
2019-Sep-19 23:30N 29°37' W 089°53'611.7
2019-Sep-19 22:56N 29°41' W 089°58'612.8
2019-Sep-19 22:27N 29°47' W 090°01'613.6
2019-Sep-19 22:00N 29°53' W 089°58'3 6.5
2019-Sep-19 21:28N 29°55' W 089°55'611.7
2019-Sep-19 20:59N 29°57' W 090°01'2 4.5
2019-Sep-19 20:28N 29°56' W 090°04'0 0.0
2019-Sep-19 19:58N 29°56' W 090°04'0 0.0
2019-Sep-19 19:28N 29°56' W 090°04'0 0.0
2019-Sep-19 18:58N 29°56' W 090°04'0 0.0
2019-Sep-19 18:30N 29°56' W 090°04'0 0.0
2019-Sep-19 18:00N 29°56' W 090°04'0 0.0
2019-Sep-19 17:30N 29°56' W 090°04'0 0.0
2019-Sep-19 17:00N 29°56' W 090°04'0 0.0
2019-Sep-19 16:30N 29°56' W 090°04'0 0.0
2019-Sep-19 15:56N 29°56' W 090°04'0 0.0
2019-Sep-19 15:29N 29°56' W 090°04'0 0.0
2019-Sep-19 14:59N 29°56' W 090°04'0 0.0
2019-Sep-19 14:29N 29°56' W 090°04'0 0.0
2019-Sep-19 13:49N 29°56' W 090°04'0 0.0
2019-Sep-19 13:25N 29°56' W 090°04'0 0.0
2019-Sep-19 12:58N 29°56' W 090°04'0 0.0
2019-Sep-19 12:28N 29°56' W 090°04'0 0.0
2019-Sep-19 11:58N 29°56' W 090°04'0 0.0
2019-Sep-19 11:31N 29°56' W 090°04'0 0.0
2019-Sep-19 11:00N 29°56' W 090°04'0 0.0
2019-Sep-19 10:30N 29°56' W 090°04'1 1.4
2019-Sep-19 10:00N 29°57' W 090°04'4 7.4
2019-Sep-19 09:30N 29°56' W 089°59'510.4
2019-Sep-19 09:00N 29°53' W 089°54'4 8.3
2019-Sep-19 08:30N 29°52' W 089°59'612.5
2019-Sep-19 08:00N 29°46' W 090°01'713.5
2019-Sep-19 07:30N 29°40' W 089°58'611.3
2019-Sep-19 06:59N 29°36' W 089°52'1213.8
2019-Sep-19 06:07N 29°29' W 089°42'414.9
2019-Sep-19 05:52N 29°27' W 089°38'411.1
2019-Sep-19 05:29N 29°23' W 089°36'912.6
2019-Sep-19 04:47N 29°21' W 089°26'23215.6
2019-Sep-18 14:00N 25°30' W 089°18'3015.0 060 / 61015.510.8 29.0 30.0
2019-Sep-18 12:00N 25°00' W 089°18'3618.0 100 / 61014.910.8 29.023.230.0
2019-Sep-18 10:00N 24°24' W 089°18'10816.1 100 / 151013.910.8 29.023.230.0
2019-Sep-18 03:18N 22°36' W 089°16'517.0
2019-Sep-18 03:00N 22°32' W 089°16'4248.9
2019-Sep-18 03:00N 22°30' W 089°12'815.9 090 / 161014.910.8 29.0 30.0
2019-Sep-18 02:31N 22°23' W 089°16'1016.3
2019-Sep-18 01:54N 22°14' W 089°20'1916.4
2019-Sep-18 00:44N 21°56' W 089°28'1416.2
2019-Sep-17 23:52N 21°44' W 089°34'616.0
2019-Sep-17 23:30N 21°38' W 089°36'815.8
2019-Sep-17 23:00N 21°31' W 089°40'612.5
2019-Sep-17 22:30N 21°25' W 089°41'4 8.2
2019-Sep-17 21:58N 21°21' W 089°41'0 0.0
2019-Sep-17 21:28N 21°21' W 089°41'0 0.0
2019-Sep-17 21:00N 21°21' W 089°41'0 0.0
2019-Sep-17 20:24N 21°21' W 089°41'0 0.0
2019-Sep-17 20:00N 21°21' W 089°41'0 0.0
2019-Sep-17 19:18N 21°21' W 089°41'0 0.0
2019-Sep-17 18:59N 21°21' W 089°41'0 0.0
2019-Sep-17 18:29N 21°21' W 089°41'0 0.0
2019-Sep-17 17:59N 21°21' W 089°41'0 0.0
2019-Sep-17 17:29N 21°21' W 089°41'0 0.0
2019-Sep-17 16:59N 21°21' W 089°41'0 0.0
2019-Sep-17 16:28N 21°21' W 089°41'0 0.0
2019-Sep-17 15:58N 21°21' W 089°41'0 0.0
2019-Sep-17 15:22N 21°21' W 089°41'0 0.0
2019-Sep-17 14:58N 21°21' W 089°41'0 0.0
2019-Sep-17 14:31N 21°21' W 089°41'0 0.0
2019-Sep-17 14:01N 21°21' W 089°41'0 0.2
2019-Sep-17 13:30N 21°20' W 089°41'5 9.4
2019-Sep-17 13:00N 21°25' W 089°41'510.4
2019-Sep-17 12:30N 21°30' W 089°39'713.7
2019-Sep-17 12:00N 21°35' W 089°35'816.8
2019-Sep-17 11:30N 21°42' W 089°29'917.4
2019-Sep-17 11:00N 21°44' W 089°20'1017.4
2019-Sep-17 10:25N 21°47' W 089°09'920.7
2019-Sep-17 10:00N 21°48' W 089°00'123.0 140 / 121013.410.8 29.023.230.0
2019-Sep-17 09:57N 21°49' W 089°01'1617.4
2019-Sep-17 09:03N 21°52' W 088°45'117.6
2019-Sep-17 08:58N 21°53' W 088°43'817.7
2019-Sep-17 08:30N 21°55' W 088°35'1217.7
2019-Sep-17 07:51N 21°58' W 088°22'11412.3
2019-Sep-16 22:38N 20°35' W 086°58'219.9
2019-Sep-16 22:30N 20°33' W 086°60'5 8.9
2019-Sep-16 21:58N 20°29' W 086°59'0 0.0
2019-Sep-16 21:28N 20°29' W 086°59'0 0.0
2019-Sep-16 20:58N 20°29' W 086°59'0 0.0
2019-Sep-16 20:30N 20°29' W 086°59'0 0.0
2019-Sep-16 20:00N 20°29' W 086°59'0 0.0
2019-Sep-16 19:30N 20°29' W 086°59'0 0.0
2019-Sep-16 19:00N 20°29' W 086°59'0 0.0
2019-Sep-16 18:30N 20°29' W 086°59'0 0.0
2019-Sep-16 17:59N 20°29' W 086°59'0 0.0
2019-Sep-16 17:29N 20°29' W 086°59'0 0.0
2019-Sep-16 16:59N 20°29' W 086°59'0 0.0
2019-Sep-16 16:29N 20°29' W 086°59'0 0.0
2019-Sep-16 15:59N 20°29' W 086°59'0 0.0
2019-Sep-16 15:28N 20°29' W 086°59'0 0.0
2019-Sep-16 14:58N 20°29' W 086°59'0 0.0
2019-Sep-16 14:28N 20°29' W 086°59'0 0.0
2019-Sep-16 13:58N 20°29' W 086°59'0 0.0
2019-Sep-16 13:30N 20°29' W 086°59'0 0.0
2019-Sep-16 13:01N 20°29' W 086°59'0 0.1
2019-Sep-16 12:30N 20°29' W 086°59'3 6.1
2019-Sep-16 12:01N 20°31' W 086°60'510.0
2019-Sep-16 11:31N 20°36' W 086°58'711.4
2019-Sep-16 10:53N 20°42' W 086°54'1618.2
2019-Sep-16 10:00N 20°54' W 086°42'31116.4 140 / 121013.710.8 29.023.229.0
2019-Sep-15 15:00N 25°54' W 088°12'8817.6 160 / 121012.6 29.0 30.0
2019-Sep-15 10:00N 27°18' W 088°42'15213.9 090 / 271013.010.8 29.023.229.0
2019-Sep-14 23:04N 29°37' W 089°53'213.4
2019-Sep-14 22:54N 29°38' W 089°55'712.6
2019-Sep-14 22:23N 29°44' W 089°59'511.9
2019-Sep-14 21:59N 29°48' W 090°00'511.1
2019-Sep-14 21:30N 29°53' W 089°57'3 5.7
2019-Sep-14 21:00N 29°55' W 089°56'712.8
2019-Sep-14 20:30N 29°57' W 090°03'1 2.7
2019-Sep-14 19:59N 29°56' W 090°04'0 0.0
2019-Sep-14 19:29N 29°56' W 090°04'0 0.0
2019-Sep-14 18:59N 29°56' W 090°04'0 0.0
2019-Sep-14 18:28N 29°56' W 090°04'0 0.0
2019-Sep-14 18:00N 29°56' W 090°04'0 0.0
2019-Sep-14 17:28N 29°56' W 090°04'0 0.0
2019-Sep-14 16:58N 29°56' W 090°04'0 0.0
2019-Sep-14 16:28N 29°56' W 090°04'0 0.0
2019-Sep-14 15:57N 29°56' W 090°04'0 0.0
2019-Sep-14 15:30N 29°56' W 090°04'0 0.0
2019-Sep-14 15:00N 29°56' W 090°04'0 0.0
2019-Sep-14 14:30N 29°56' W 090°04'0 0.0
2019-Sep-14 13:56N 29°56' W 090°04'0 0.0
2019-Sep-14 13:29N 29°56' W 090°04'0 0.0
2019-Sep-14 12:59N 29°56' W 090°04'0 0.0
2019-Sep-14 12:29N 29°56' W 090°04'0 0.0
2019-Sep-14 11:59N 29°56' W 090°04'0 0.0
2019-Sep-14 11:28N 29°56' W 090°04'0 0.0
2019-Sep-14 10:58N 29°56' W 090°04'0 0.0
2019-Sep-14 10:28N 29°56' W 090°04'0 0.0
2019-Sep-14 09:59N 29°56' W 090°04'2 3.1
2019-Sep-14 09:30N 29°57' W 090°02'612.3
2019-Sep-14 09:00N 29°55' W 089°56'3 5.5
2019-Sep-14 08:30N 29°53' W 089°57'611.8
2019-Sep-14 08:01N 29°48' W 090°01'611.8
2019-Sep-14 07:30N 29°42' W 089°59'610.7
2019-Sep-14 06:58N 29°37' W 089°55'28514.3
2019-Sep-13 11:00N 24°54' W 089°18'1818.0 100 / 201014.010.8 29.021.630.0
2019-Sep-13 10:00N 24°36' W 089°18'17017.8 090 / 171013.210.8 29.023.229.0
2019-Sep-13 00:25N 21°46' W 089°33'717.5
2019-Sep-13 00:00N 21°40' W 089°36'917.5
2019-Sep-12 23:30N 21°32' W 089°40'612.5
2019-Sep-12 23:00N 21°26' W 089°42'510.6
2019-Sep-12 22:30N 21°21' W 089°41'1 1.2
2019-Sep-12 21:58N 21°21' W 089°41'0 0.0
2019-Sep-12 21:31N 21°21' W 089°41'0 0.0
2019-Sep-12 21:00N 21°21' W 089°41'0 0.0
2019-Sep-12 20:24N 21°21' W 089°41'0 0.0
2019-Sep-12 20:00N 21°21' W 089°41'0 0.0
2019-Sep-12 19:30N 21°21' W 089°41'0 0.0
2019-Sep-12 18:59N 21°21' W 089°41'0 0.0
2019-Sep-12 18:29N 21°21' W 089°41'0 0.0
2019-Sep-12 17:56N 21°21' W 089°41'0 0.0
2019-Sep-12 17:29N 21°21' W 089°41'0 0.0
2019-Sep-12 16:59N 21°21' W 089°41'0 0.0
2019-Sep-12 16:28N 21°21' W 089°41'0 0.0
2019-Sep-12 15:58N 21°21' W 089°41'0 0.0
2019-Sep-12 15:28N 21°21' W 089°41'0 0.0
2019-Sep-12 14:58N 21°21' W 089°41'0 0.0
2019-Sep-12 14:30N 21°21' W 089°41'0 0.0
2019-Sep-12 14:00N 21°21' W 089°41'0 0.2
2019-Sep-12 13:31N 21°20' W 089°41'4 8.9
2019-Sep-12 13:00N 21°25' W 089°41'510.5
2019-Sep-12 12:30N 21°30' W 089°39'713.9
2019-Sep-12 12:00N 21°35' W 089°35'917.2
2019-Sep-12 11:30N 21°42' W 089°29'917.7
2019-Sep-12 11:00N 21°44' W 089°20'917.7
2019-Sep-12 10:30N 21°46' W 089°10'1529.9
2019-Sep-12 10:00N 21°48' W 088°54'13011.8 070 / 151012.310.8 28.023.730.0
2019-Sep-11 22:56N 20°35' W 086°58'614.6
2019-Sep-11 22:31N 20°29' W 086°59'1 1.6
2019-Sep-11 22:00N 20°29' W 086°59'0 0.0
2019-Sep-11 21:30N 20°29' W 086°59'0 0.0
2019-Sep-11 21:00N 20°29' W 086°59'0 0.0
2019-Sep-11 20:30N 20°29' W 086°59'0 0.0
2019-Sep-11 19:59N 20°29' W 086°59'0 0.0
2019-Sep-11 19:29N 20°29' W 086°59'0 0.0
2019-Sep-11 18:59N 20°29' W 086°59'0 0.0
2019-Sep-11 18:29N 20°29' W 086°59'0 0.0
2019-Sep-11 17:59N 20°29' W 086°59'0 0.0
2019-Sep-11 17:28N 20°29' W 086°59'0 0.0
2019-Sep-11 16:58N 20°29' W 086°59'0 0.0
2019-Sep-11 16:28N 20°29' W 086°59'0 0.1
2019-Sep-11 16:00N 20°29' W 086°59'0 0.1
2019-Sep-11 15:25N 20°29' W 086°59'0 0.0
2019-Sep-11 14:59N 20°29' W 086°59'0 0.0
2019-Sep-11 14:29N 20°29' W 086°59'0 0.0
2019-Sep-11 13:59N 20°29' W 086°59'0 0.0
2019-Sep-11 13:29N 20°29' W 086°59'0 0.0
2019-Sep-11 12:58N 20°29' W 086°59'0 0.1
2019-Sep-11 12:30N 20°29' W 086°59'3 6.5
2019-Sep-11 12:00N 20°32' W 086°59'4 8.0
2019-Sep-11 11:30N 20°36' W 086°58'  
Track history (hours):
 
Tides and Currents Weather Stations Pressure Air Temp Water Temp Dewpoint Dewpoint Depression Visibility Wind Speed Wind Dir Waves Ship Positions

Carnival Valor

Last reported at 2019-Sep-21 11:30 UTC. Time now 2019-Sep-21 11:39 UTC.
Position N 20°29' W 086°59'.

Type: Ship. MMSI: 354298000.

Date/timePositionNaut miles runAvg speedWind from/ knotsBaromVisibWave heightAir tempDewpointWater temp
2019-Sep-21 11:30N 20°29' W 086°59'3 6.9
2019-Sep-21 11:00N 20°32' W 086°60'4 7.1
2019-Sep-21 10:30N 20°35' W 086°58'611.6
2019-Sep-21 10:00N 20°40' W 086°55'32216.9
2019-Sep-20 15:00N 25°54' W 088°12'23915.6 080 / 301016.310.8 27.0 30.0
2019-Sep-19 23:38N 29°36' W 089°51'212.6
2019-Sep-19 23:30N 29°37' W 089°53'611.7
2019-Sep-19 22:56N 29°41' W 089°58'612.8
2019-Sep-19 22:27N 29°47' W 090°01'613.6
2019-Sep-19 22:00N 29°53' W 089°58'3 6.5
2019-Sep-19 21:28N 29°55' W 089°55'611.7
2019-Sep-19 20:59N 29°57' W 090°01'2 4.5
2019-Sep-19 20:28N 29°56' W 090°04'0 0.0
2019-Sep-19 19:58N 29°56' W 090°04'0 0.0
2019-Sep-19 19:28N 29°56' W 090°04'0 0.0
2019-Sep-19 18:58N 29°56' W 090°04'0 0.0
2019-Sep-19 18:30N 29°56' W 090°04'0 0.0
2019-Sep-19 18:00N 29°56' W 090°04'0 0.0
2019-Sep-19 17:30N 29°56' W 090°04'0 0.0
2019-Sep-19 17:00N 29°56' W 090°04'0 0.0
2019-Sep-19 16:30N 29°56' W 090°04'0 0.0
2019-Sep-19 15:56N 29°56' W 090°04'0 0.0
2019-Sep-19 15:29N 29°56' W 090°04'0 0.0
2019-Sep-19 14:59N 29°56' W 090°04'0 0.0
2019-Sep-19 14:29N 29°56' W 090°04'0 0.0
2019-Sep-19 13:49N 29°56' W 090°04'0 0.0
2019-Sep-19 13:25N 29°56' W 090°04'0 0.0
2019-Sep-19 12:58N 29°56' W 090°04'0 0.0
2019-Sep-19 12:28N 29°56' W 090°04'0 0.0
2019-Sep-19 11:58N 29°56' W 090°04'0 0.0
2019-Sep-19 11:31N 29°56' W 090°04'0 0.0
2019-Sep-19 11:00N 29°56' W 090°04'0 0.0
2019-Sep-19 10:30N 29°56' W 090°04'1 1.4
2019-Sep-19 10:00N 29°57' W 090°04'4 7.4
2019-Sep-19 09:30N 29°56' W 089°59'510.4
2019-Sep-19 09:00N 29°53' W 089°54'4 8.3
2019-Sep-19 08:30N 29°52' W 089°59'612.5
2019-Sep-19 08:00N 29°46' W 090°01'713.5
2019-Sep-19 07:30N 29°40' W 089°58'611.3
2019-Sep-19 06:59N 29°36' W 089°52'1213.8
2019-Sep-19 06:07N 29°29' W 089°42'414.9
2019-Sep-19 05:52N 29°27' W 089°38'411.1
2019-Sep-19 05:29N 29°23' W 089°36'912.6
2019-Sep-19 04:47N 29°21' W 089°26'23215.6
2019-Sep-18 14:00N 25°30' W 089°18'3015.0 060 / 61015.510.8 29.0 30.0
2019-Sep-18 12:00N 25°00' W 089°18'3618.0 100 / 61014.910.8 29.023.230.0
2019-Sep-18 10:00N 24°24' W 089°18'10816.1 100 / 151013.910.8 29.023.230.0
2019-Sep-18 03:18N 22°36' W 089°16'517.0
2019-Sep-18 03:00N 22°32' W 089°16'4248.9
2019-Sep-18 03:00N 22°30' W 089°12'815.9 090 / 161014.910.8 29.0 30.0
2019-Sep-18 02:31N 22°23' W 089°16'1016.3
2019-Sep-18 01:54N 22°14' W 089°20'1916.4
2019-Sep-18 00:44N 21°56' W 089°28'1416.2
2019-Sep-17 23:52N 21°44' W 089°34'616.0
2019-Sep-17 23:30N 21°38' W 089°36'815.8
2019-Sep-17 23:00N 21°31' W 089°40'612.5
2019-Sep-17 22:30N 21°25' W 089°41'4 8.2
2019-Sep-17 21:58N 21°21' W 089°41'0 0.0
2019-Sep-17 21:28N 21°21' W 089°41'0 0.0
2019-Sep-17 21:00N 21°21' W 089°41'0 0.0
2019-Sep-17 20:24N 21°21' W 089°41'0 0.0
2019-Sep-17 20:00N 21°21' W 089°41'0 0.0
2019-Sep-17 19:18N 21°21' W 089°41'0 0.0
2019-Sep-17 18:59N 21°21' W 089°41'0 0.0
2019-Sep-17 18:29N 21°21' W 089°41'0 0.0
2019-Sep-17 17:59N 21°21' W 089°41'0 0.0
2019-Sep-17 17:29N 21°21' W 089°41'0 0.0
2019-Sep-17 16:59N 21°21' W 089°41'0 0.0
2019-Sep-17 16:28N 21°21' W 089°41'0 0.0
2019-Sep-17 15:58N 21°21' W 089°41'0 0.0
2019-Sep-17 15:22N 21°21' W 089°41'0 0.0
2019-Sep-17 14:58N 21°21' W 089°41'0 0.0
2019-Sep-17 14:31N 21°21' W 089°41'0 0.0
2019-Sep-17 14:01N 21°21' W 089°41'0 0.2
2019-Sep-17 13:30N 21°20' W 089°41'5 9.4
2019-Sep-17 13:00N 21°25' W 089°41'510.4
2019-Sep-17 12:30N 21°30' W 089°39'713.7
2019-Sep-17 12:00N 21°35' W 089°35'816.8
2019-Sep-17 11:30N 21°42' W 089°29'917.4
2019-Sep-17 11:00N 21°44' W 089°20'1017.4
2019-Sep-17 10:25N 21°47' W 089°09'920.7
2019-Sep-17 10:00N 21°48' W 089°00'123.0 140 / 121013.410.8 29.023.230.0
2019-Sep-17 09:57N 21°49' W 089°01'1617.4
2019-Sep-17 09:03N 21°52' W 088°45'117.6
2019-Sep-17 08:58N 21°53' W 088°43'817.7
2019-Sep-17 08:30N 21°55' W 088°35'1217.7
2019-Sep-17 07:51N 21°58' W 088°22'11412.3
2019-Sep-16 22:38N 20°35' W 086°58'219.9
2019-Sep-16 22:30N 20°33' W 086°60'5 8.9
2019-Sep-16 21:58N 20°29' W 086°59'0 0.0
2019-Sep-16 21:28N 20°29' W 086°59'0 0.0
2019-Sep-16 20:58N 20°29' W 086°59'0 0.0
2019-Sep-16 20:30N 20°29' W 086°59'0 0.0
2019-Sep-16 20:00N 20°29' W 086°59'0 0.0
2019-Sep-16 19:30N 20°29' W 086°59'0 0.0
2019-Sep-16 19:00N 20°29' W 086°59'0 0.0
2019-Sep-16 18:30N 20°29' W 086°59'0 0.0
2019-Sep-16 17:59N 20°29' W 086°59'0 0.0
2019-Sep-16 17:29N 20°29' W 086°59'0 0.0
2019-Sep-16 16:59N 20°29' W 086°59'0 0.0
2019-Sep-16 16:29N 20°29' W 086°59'0 0.0
2019-Sep-16 15:59N 20°29' W 086°59'0 0.0
2019-Sep-16 15:28N 20°29' W 086°59'0 0.0
2019-Sep-16 14:58N 20°29' W 086°59'0 0.0
2019-Sep-16 14:28N 20°29' W 086°59'0 0.0
2019-Sep-16 13:58N 20°29' W 086°59'0 0.0
2019-Sep-16 13:30N 20°29' W 086°59'0 0.0
2019-Sep-16 13:01N 20°29' W 086°59'0 0.1
2019-Sep-16 12:30N 20°29' W 086°59'3 6.1
2019-Sep-16 12:01N 20°31' W 086°60'510.0
2019-Sep-16 11:31N 20°36' W 086°58'711.4
2019-Sep-16 10:53N 20°42' W 086°54'1618.2
2019-Sep-16 10:00N 20°54' W 086°42'31116.4 140 / 121013.710.8 29.023.229.0
2019-Sep-15 15:00N 25°54' W 088°12'8817.6 160 / 121012.6 29.0 30.0
2019-Sep-15 10:00N 27°18' W 088°42'15213.9 090 / 271013.010.8 29.023.229.0
2019-Sep-14 23:04N 29°37' W 089°53'213.4
2019-Sep-14 22:54N 29°38' W 089°55'712.6
2019-Sep-14 22:23N 29°44' W 089°59'511.9
2019-Sep-14 21:59N 29°48' W 090°00'511.1
2019-Sep-14 21:30N 29°53' W 089°57'3 5.7
2019-Sep-14 21:00N 29°55' W 089°56'712.8
2019-Sep-14 20:30N 29°57' W 090°03'1 2.7
2019-Sep-14 19:59N 29°56' W 090°04'0 0.0
2019-Sep-14 19:29N 29°56' W 090°04'0 0.0
2019-Sep-14 18:59N 29°56' W 090°04'0 0.0
2019-Sep-14 18:28N 29°56' W 090°04'0 0.0
2019-Sep-14 18:00N 29°56' W 090°04'0 0.0
2019-Sep-14 17:28N 29°56' W 090°04'0 0.0
2019-Sep-14 16:58N 29°56' W 090°04'0 0.0
2019-Sep-14 16:28N 29°56' W 090°04'0 0.0
2019-Sep-14 15:57N 29°56' W 090°04'0 0.0
2019-Sep-14 15:30N 29°56' W 090°04'0 0.0
2019-Sep-14 15:00N 29°56' W 090°04'0 0.0
2019-Sep-14 14:30N 29°56' W 090°04'0 0.0
2019-Sep-14 13:56N 29°56' W 090°04'0 0.0
2019-Sep-14 13:29N 29°56' W 090°04'0 0.0
2019-Sep-14 12:59N 29°56' W 090°04'0 0.0
2019-Sep-14 12:29N 29°56' W 090°04'0 0.0
2019-Sep-14 11:59N 29°56' W 090°04'0 0.0
2019-Sep-14 11:28N 29°56' W 090°04'0 0.0
2019-Sep-14 10:58N 29°56' W 090°04'0 0.0
2019-Sep-14 10:28N 29°56' W 090°04'0 0.0
2019-Sep-14 09:59N 29°56' W 090°04'2 3.1
2019-Sep-14 09:30N 29°57' W 090°02'612.3
2019-Sep-14 09:00N 29°55' W 089°56'3 5.5
2019-Sep-14 08:30N 29°53' W 089°57'611.8
2019-Sep-14 08:01N 29°48' W 090°01'611.8
2019-Sep-14 07:30N 29°42' W 089°59'610.7
2019-Sep-14 06:58N 29°37' W 089°55'28514.3
2019-Sep-13 11:00N 24°54' W 089°18'1818.0 100 / 201014.010.8 29.021.630.0
2019-Sep-13 10:00N 24°36' W 089°18'17017.8 090 / 171013.210.8 29.023.229.0
2019-Sep-13 00:25N 21°46' W 089°33'717.5
2019-Sep-13 00:00N 21°40' W 089°36'917.5
2019-Sep-12 23:30N 21°32' W 089°40'612.5
2019-Sep-12 23:00N 21°26' W 089°42'510.6
2019-Sep-12 22:30N 21°21' W 089°41'1 1.2
2019-Sep-12 21:58N 21°21' W 089°41'0 0.0
2019-Sep-12 21:31N 21°21' W 089°41'0 0.0
2019-Sep-12 21:00N 21°21' W 089°41'0 0.0
2019-Sep-12 20:24N 21°21' W 089°41'0 0.0
2019-Sep-12 20:00N 21°21' W 089°41'0 0.0
2019-Sep-12 19:30N 21°21' W 089°41'0 0.0
2019-Sep-12 18:59N 21°21' W 089°41'0 0.0
2019-Sep-12 18:29N 21°21' W 089°41'0 0.0
2019-Sep-12 17:56N 21°21' W 089°41'0 0.0
2019-Sep-12 17:29N 21°21' W 089°41'0 0.0
2019-Sep-12 16:59N 21°21' W 089°41'0 0.0
2019-Sep-12 16:28N 21°21' W 089°41'0 0.0
2019-Sep-12 15:58N 21°21' W 089°41'0 0.0
2019-Sep-12 15:28N 21°21' W 089°41'0 0.0
2019-Sep-12 14:58N 21°21' W 089°41'0 0.0
2019-Sep-12 14:30N 21°21' W 089°41'0 0.0
2019-Sep-12 14:00N 21°21' W 089°41'0 0.2
2019-Sep-12 13:31N 21°20' W 089°41'4 8.9
2019-Sep-12 13:00N 21°25' W 089°41'510.5
2019-Sep-12 12:30N 21°30' W 089°39'713.9
2019-Sep-12 12:00N 21°35' W 089°35'917.2
2019-Sep-12 11:30N 21°42' W 089°29'917.7
2019-Sep-12 11:00N 21°44' W 089°20'917.7
2019-Sep-12 10:30N 21°46' W 089°10'1529.9
2019-Sep-12 10:00N 21°48' W 088°54'13011.8 070 / 151012.310.8 28.023.730.0
2019-Sep-11 22:56N 20°35' W 086°58'614.6
2019-Sep-11 22:31N 20°29' W 086°59'1 1.6
2019-Sep-11 22:00N 20°29' W 086°59'0 0.0
2019-Sep-11 21:30N 20°29' W 086°59'0 0.0
2019-Sep-11 21:00N 20°29' W 086°59'0 0.0
2019-Sep-11 20:30N 20°29' W 086°59'0 0.0
2019-Sep-11 19:59N 20°29' W 086°59'0 0.0
2019-Sep-11 19:29N 20°29' W 086°59'0 0.0
2019-Sep-11 18:59N 20°29' W 086°59'0 0.0
2019-Sep-11 18:29N 20°29' W 086°59'0 0.0
2019-Sep-11 17:59N 20°29' W 086°59'0 0.0
2019-Sep-11 17:28N 20°29' W 086°59'0 0.0
2019-Sep-11 16:58N 20°29' W 086°59'0 0.0
2019-Sep-11 16:28N 20°29' W 086°59'0 0.1
2019-Sep-11 16:00N 20°29' W 086°59'0 0.1
2019-Sep-11 15:25N 20°29' W 086°59'0 0.0
2019-Sep-11 14:59N 20°29' W 086°59'0 0.0
2019-Sep-11 14:29N 20°29' W 086°59'0 0.0
2019-Sep-11 13:59N 20°29' W 086°59'0 0.0
2019-Sep-11 13:29N 20°29' W 086°59'0 0.0
2019-Sep-11 12:58N 20°29' W 086°59'0 0.1
2019-Sep-11 12:30N 20°29' W 086°59'3 6.5
2019-Sep-11 12:00N 20°32' W 086°59'4 8.0
2019-Sep-11 11:30N 20°36' W 086°58'  

Dump ship's entire track history